Alden, NY

7:37 AM EDT on May 23, 2015 (GMT -0400)
Cattaraugus County-Olean | | Change Station
CLOSE
Current Station
Airport
Location: Olean,
Elevation: 2136 ft
Nearby Weather Stations
Active Advisory: Frost Advisory

Elev 2136 ft 42.24 °N, 78.37 °W | Updated 22 minutes ago

Clear
Clear
32 °F
Feels Like 26 °F
N
6
Wind Variable Wind from SSW

Today
High -- | Low -- °F
--% Chance of Precip.
Yesterday
High -- | Low -- °F
Precip. -- in
5:44 AM 8:38 PM
Waxing Crescent, 29% visible
Pressure 30.37 in
Visibility 10.0 miles
Clouds Clear
Windchill 26 °F
Dew Point 27 °F
Humidity 80%
Rainfall 0.00 in
Snow Depth Not available.
UV 1 out of 12
Pollen 9.30 out of 12
Air Quality Not available.
Flu Activity Widespread
METAR KOLE 231115Z AUTO 20005KT 10SM CLR 00/M03 A3037 RMK AO2

More Conditions Fewer Conditions

Pressure 30.37 in
Visibility 10.0 miles
Clouds Clear
Windchill 26 °F
Dew Point 27 °F
Humidity 80%
Rainfall 0.00 in
Snow Depth Not available.
UV 1 out of 12
Pollen 9.30 out of 12
Air Quality Not available.
Flu Activity Widespread
METAR KOLE 231115Z AUTO 20005KT 10SM CLR 00/M03 A3037 RMK AO2

More Conditions Fewer Conditions

10-Day Weather Forecast

Almanac

Astronomy

May. 23, 2015 Rise Set
Actual Time
Civil Twilight
Nautical Twilight
Astronomical Twilight
Moon
Length of Visible Light
Length of Day
Tomorrow will be .
, % of the Moon is Illuminated

Today's Extremes

State Highs State Lows

Community

WunderPhotos

Upload Photos

1,823,409 photos uploaded!

WunderBlogs® & News

Nearby

Air Quality

  Air Quality AQ Index Pollutant
Not available.

Snow Depth

Station Depth Elevation

Earthquake Activity

City Distance Mag. Time & Date
Minimum magnitude displayed is 2.5.

Coastal Water Temperatures

Place Temperature

Stations

Nearby Weather Stations

Station Location Temp. Windchill Dew Point Humidity Wind Precip. Elev Updated Type
                   
Frost Advisory
Statement as of 3:40 AM EDT on May 23, 2015

... Frost advisory remains in effect until 9 am EDT this morning...

* locations... Niagara... Orleans... Monroe... Wayne... northern
Erie... Genesee... and Ontario counties.

* Timing... into the mid morning hours.

* Temperatures... in the low to mid 30s.

* Impacts... areas of frost will result in damage to tender
vegetation unless protective measures are taken.

Precautionary/preparedness actions...

A frost advisory is issued when frost is expected to develop
during the growing season. If you are in the advisory area you
should take steps to protect tender vegetation. Also... potted
plants normally left outdoors should be covered or brought inside
away from the cold.



Rsh